Avondale, Kentucky
Current Conditions -  °F | °C
As of 7:53 AM on Monday 20 Oct 2014 (Local Time) from KPAH Reporting Station
Overcast Overcast  
Wind Chill: 52°   Ceiling: 10000
Heat Index: 52°   Visibility: 9mi
Dew Point: 47°   Wind: 7mph
Humidity: 83%   Direction: 230°SW
Pressure: 30.04"   Gusts: NA
Location:  37.0331°N, 88.716°W
Report Text: KPAH 201253Z 23006KT 9SM OVC100 11/08 A3004 RMK AO2 SLP173 T01110083
Loading
Personal Weather Stations






























Interactive Weather Map
Tropical Storm Tracking
New forecast layout! Learn more

10-Day Weather Forecast

Advertisements
Track Severe Weather on mobile